Language selection

My Weather Profile Weather Topics  | 

West Brevoort - northern half: Past 24 Hour Conditions

 

CFB Goose Bay

03:00 PM AST 27 November 2022
Disclaimer

This table is a summary of hourly weather conditions for the past 24 hours.
Please note that these observations might not always be representative of weather conditions over their associated marine area.

Date / Time
(AST)
Wind(knots) Conditions Visibility(km) Pressure(kPa) Air tempC) Relative humidity(%) Dew pointC) Wind Chill
27 November 2022
15:00 SW 2 Light Snow 5 99.5 -1 92 -2 -2
14:00 S 2 Light Snow 2 99.6 -1 90 -2 -2
13:00 calm Light Snowshower 5 99.6 -1 85 -3 *
12:00 N 2 Light Snowshower 19 99.7 -1 83 -3 -2
11:00 WNW 5 Light Snowshower 24 99.8 -1 87 -3 -5
10:00 SSW 2 Light Snowshower 24 99.9 -1 84 -3 -2
9:00 SSW 3 Cloudy 24 99.9 -1 86 -3 -3
8:00 S 4 Mostly Cloudy 24 99.9 -2 88 -3 -5
7:00 SW 4 Mostly Cloudy 24 100.0 -2 92 -4 -5
6:00 SSW 3 Cloudy 24 100.0 -2 91 -4 -4
5:00 calm Cloudy 24 100.0 -2 91 -4 *
4:00 SSW 3 Cloudy 24 100.0 -2 90 -4 -4
3:00 WSW 2 Light Snow 13 100.1 -2 91 -4 -4
2:00 SW 3 Light Snow 8 100.1 -1 88 -3 -3
1:00 SSE 7 Light Snow 16 100.1 0 80 -3 -4
0:00 SSE 7 Light Snow 16 100.1 -1 81 -3 -5
26 November 2022
23:00 WNW 2 Cloudy 24 100.1 -2 90 -3 -3
22:00 NW 2 Light Snow 10 100.2 -2 92 -4 -4
21:00 calm Light Snow 10 100.2 -2 92 -3 *
20:00 N 2 Light Snow 16 100.2 -2 92 -3 -4
19:00 NNW 4 Light Snow 10 100.3 -2 92 -3 -5
18:00 NE 2 Light Snow 10 100.3 -3 91 -4 -4
17:00 calm Light Snow 8 100.3 -3 91 -4 *
16:00 N 2 Light Snow 8 100.3 -2 90 -4 -4
15:00 NE 2 Light Snow 8 100.3 -2 88 -4 -4

Zoom-in to make a selection

Map of Atlantic - Labrador marine weather areas Kangiqsualujjuaq Airport Cape Kakkiviak Cape Kiglapait Cartwright Airport CFB Goose Bay Hopedale Mary's Harbour Nain Airport Makkovik Airport Saglek Tukialik Bay
Legend:
buoy Buoy
land station Land Station

Atlantic - Labrador Area

Another Region

What we are doing

Date modified: